Time;durP1;ratioP1;P1;durP2;ratioP2;P2;SDS_P1;SDS_P2;PMS_P1;PMS_P2;Temp;Humidity;BMP_temperature;BMP_pressure;BME280_temperature;BME280_humidity;BME280_pressure;Samples;Min_cycle;Max_cycle;Signal;HPM_P1;HPM_P2
2022/02/08 00:00:04;;;;;;;34.17;23.52;;;;;;;1.57;89.54;98295.88;5064340;28;20348;-60
2022/02/08 00:02:33;;;;;;;33.10;24.23;;;;;;;1.68;89.47;98296.63;5064792;28;20040;-60
2022/02/08 00:04:59;;;;;;;35.50;22.92;;;;;;;1.72;89.21;98288.09;5064519;28;20052;-61
2022/02/08 00:07:27;;;;;;;35.47;24.45;;;;;;;1.74;89.20;98299.16;5064256;28;20036;-61
2022/02/08 00:09:52;;;;;;;32.38;23.92;;;;;;;1.73;89.09;98294.91;5064419;28;20039;-60
2022/02/08 00:12:18;;;;;;;33.53;24.20;;;;;;;1.73;89.32;98297.44;5063453;28;20025;-61
2022/02/08 00:14:44;;;;;;;35.10;23.63;;;;;;;1.79;89.05;98305.03;5064790;28;20074;-59
2022/02/08 00:17:10;;;;;;;40.83;25.80;;;;;;;1.79;89.16;98302.50;5064276;28;20040;-59
2022/02/08 00:19:36;;;;;;;34.17;23.23;;;;;;;1.78;89.08;98303.38;5064245;28;20047;-60
2022/02/08 00:22:03;;;;;;;37.92;26.40;;;;;;;1.81;89.27;98300.78;5064214;28;20037;-60
2022/02/08 00:24:29;;;;;;;35.60;24.88;;;;;;;1.68;89.39;98286.44;5064002;28;20021;-60
2022/02/08 00:26:54;;;;;;;40.47;26.60;;;;;;;1.72;89.33;98304.28;5064051;28;20070;-60
2022/02/08 00:29:21;;;;;;;36.50;25.40;;;;;;;1.76;89.71;98307.63;5064245;28;20021;-60
2022/02/08 00:31:47;;;;;;;33.70;24.10;;;;;;;1.82;89.57;98299.06;5064206;28;20102;-59
2022/02/08 00:34:13;;;;;;;35.85;23.98;;;;;;;1.89;89.15;98299.00;5054577;28;20345;-59
2022/02/08 00:36:38;;;;;;;36.25;24.75;;;;;;;1.82;89.45;98304.19;5063814;28;20218;-60
2022/02/08 00:39:07;;;;;;;36.47;24.83;;;;;;;1.92;89.24;98310.06;5064292;28;20024;-61
2022/02/08 00:41:35;;;;;;;39.63;27.05;;;;;;;1.75;89.33;98305.94;5063020;28;20225;-60
2022/02/08 00:44:25;;;;;;;35.28;24.60;;;;;;;1.84;89.90;98308.41;5063850;28;20092;-60
2022/02/08 00:46:58;;;;;;;36.92;26.35;;;;;;;1.80;89.54;98306.75;5063516;28;20037;-60
2022/02/08 00:49:31;;;;;;;35.10;23.52;;;;;;;1.87;89.66;98321.16;5063876;28;20194;-60
2022/02/08 00:52:04;;;;;;;40.60;27.15;;;;;;;1.54;90.47;98315.47;5063733;28;20039;-60
2022/02/08 00:54:30;;;;;;;43.95;27.17;;;;;;;1.51;90.94;98309.50;5063778;28;20073;-61
2022/02/08 00:56:56;;;;;;;38.17;26.02;;;;;;;1.65;90.74;98319.63;5062529;28;20032;-61
2022/02/08 00:59:21;;;;;;;38.88;26.90;;;;;;;1.70;90.51;98320.44;5063264;28;20052;-61
2022/02/08 01:01:47;;;;;;;41.20;29.02;;;;;;;1.66;90.76;98323.88;5063628;28;20032;-61
2022/02/08 01:04:13;;;;;;;39.95;26.90;;;;;;;1.70;90.30;98310.25;5063520;28;20032;-61
2022/02/08 01:06:41;;;;;;;41.25;27.08;;;;;;;1.78;89.97;98326.34;5063343;28;20079;-60
2022/02/08 01:09:14;;;;;;;41.03;28.20;;;;;;;1.84;90.13;98333.94;5061601;28;20048;-60
2022/02/08 01:11:42;;;;;;;41.55;27.60;;;;;;;1.88;89.97;98340.72;5063397;28;20087;-60
2022/02/08 01:14:08;;;;;;;41.35;27.40;;;;;;;1.89;89.76;98333.91;5063364;28;20028;-61
2022/02/08 01:16:34;;;;;;;42.80;27.60;;;;;;;1.91;90.26;98342.41;5063069;28;20021;-61
2022/02/08 01:19:01;;;;;;;42.53;27.55;;;;;;;1.84;90.02;98338.19;5063151;28;20052;-61
2022/02/08 01:21:26;;;;;;;37.63;26.55;;;;;;;1.88;90.00;98344.94;5063198;28;20096;-61
2022/02/08 01:23:52;;;;;;;41.88;27.40;;;;;;;1.84;90.24;98344.16;5062977;28;20043;-61
2022/02/08 01:26:19;;;;;;;40.47;27.48;;;;;;;1.81;90.38;98344.19;5062932;28;20032;-61
2022/02/08 01:29:01;;;;;;;41.67;26.40;;;;;;;1.80;90.39;98346.75;5062946;28;20031;-60
2022/02/08 01:31:28;;;;;;;39.53;27.35;;;;;;;1.77;90.24;98339.94;5063117;28;20020;-60
2022/02/08 01:37:27;;;;;;;40.60;26.30;;;;;;;1.87;90.44;98359.44;5060970;28;20024;-60
2022/02/08 01:40:06;;;;;;;43.22;27.48;;;;;;;1.75;90.60;98363.78;5052935;28;20028;-59
2022/02/08 01:42:54;;;;;;;40.83;25.27;;;;;;;1.38;91.40;98308.75;5062988;28;20032;-60
2022/02/08 01:50:35;;;;;;;38.95;25.60;;;;;;;1.71;91.70;98375.72;5061823;28;20367;-59
2022/02/08 01:53:02;;;;;;;39.90;25.40;;;;;;;1.70;91.65;98366.38;5062496;28;20016;-59
2022/02/08 01:55:28;;;;;;;43.58;26.08;;;;;;;1.81;91.42;98377.34;5062271;28;20025;-59
2022/02/08 01:57:53;;;;;;;38.08;24.17;;;;;;;1.79;91.51;98370.56;5062334;28;20118;-59
2022/02/08 02:00:20;;;;;;;40.67;25.27;;;;;;;1.73;91.55;98374.84;5060780;28;20044;-60
2022/02/08 02:02:46;;;;;;;41.75;26.20;;;;;;;1.80;91.54;98373.09;5062794;28;20049;-60
2022/02/08 02:05:12;;;;;;;37.92;24.92;;;;;;;1.79;91.92;98385.88;5062515;28;20078;-60
2022/02/08 02:07:46;;;;;;;40.70;24.67;;;;;;;1.87;91.29;98384.97;5061313;28;20036;-60
2022/02/08 02:10:12;;;;;;;36.65;24.10;;;;;;;1.87;91.37;98390.06;5064916;28;20314;-59
2022/02/08 02:12:56;;;;;;;38.58;23.40;;;;;;;1.82;91.41;98396.06;5061908;28;20111;-61
2022/02/08 02:15:22;;;;;;;39.42;23.70;;;;;;;1.89;91.13;98398.53;5062638;28;20029;-61
2022/02/08 02:17:48;;;;;;;40.63;23.85;;;;;;;1.93;91.27;98389.16;5062571;28;20233;-61
2022/02/08 02:20:14;;;;;;;37.92;24.42;;;;;;;1.98;91.38;98389.13;5056908;28;20033;-61
2022/02/08 02:22:40;;;;;;;33.83;21.80;;;;;;;1.87;91.40;98387.50;5059462;28;20078;-61
2022/02/08 02:25:06;;;;;;;32.78;20.30;;;;;;;1.94;91.37;98395.97;5065425;28;20032;-61
2022/02/08 02:27:31;;;;;;;35.92;22.23;;;;;;;2.02;91.26;98388.25;5065397;28;20033;-61
2022/02/08 02:29:57;;;;;;;35.35;22.00;;;;;;;2.05;90.54;98389.09;5063435;28;20371;-62
2022/02/08 02:32:23;;;;;;;33.08;20.95;;;;;;;2.12;90.77;98397.53;5065338;28;20040;-61
2022/02/08 02:34:50;;;;;;;32.88;20.98;;;;;;;2.14;90.15;98392.41;5064927;28;20032;-61
2022/02/08 02:37:18;;;;;;;32.28;20.92;;;;;;;2.17;90.30;98397.50;5064958;28;20103;-61
2022/02/08 02:39:44;;;;;;;31.08;19.92;;;;;;;2.20;89.83;98400.88;5065046;28;20017;-61
2022/02/08 02:42:18;;;;;;;29.92;20.17;;;;;;;1.82;89.66;98345.00;5064986;28;20265;-59
2022/02/08 02:44:43;;;;;;;29.90;20.10;;;;;;;2.24;89.97;98402.53;5063943;28;20309;-60
2022/02/08 02:47:09;;;;;;;29.60;20.05;;;;;;;2.26;89.53;98410.19;5067699;28;20045;-62
2022/02/08 02:49:34;;;;;;;29.88;19.38;;;;;;;2.24;89.48;98404.25;5064502;28;20063;-62
2022/02/08 02:52:01;;;;;;;32.03;19.35;;;;;;;2.28;89.21;98405.91;5064716;28;20032;-62
2022/02/08 02:54:27;;;;;;;29.65;19.75;;;;;;;2.24;89.34;98404.25;5065843;28;20090;-61
2022/02/08 02:56:58;;;;;;;31.88;19.52;;;;;;;2.31;88.91;98417.78;5065560;28;20344;-61
2022/02/08 02:59:24;;;;;;;27.40;17.70;;;;;;;2.21;89.29;98415.34;5064774;28;20033;-61
2022/02/08 03:18:31;;;;;;;24.98;18.02;;;;;;;2.17;89.73;98436.66;5065514;28;20033;-60
2022/02/08 03:20:55;;;;;;;29.67;18.85;;;;;;;2.06;89.95;98436.72;5064496;28;20096;-60
2022/02/08 03:23:21;;;;;;;25.55;17.05;;;;;;;2.20;89.60;98438.34;5065337;28;20187;-61
2022/02/08 03:25:46;;;;;;;25.77;18.00;;;;;;;2.16;89.57;98434.09;5065074;28;20024;-61
2022/02/08 03:28:12;;;;;;;26.00;17.48;;;;;;;2.19;89.76;98441.75;5063903;28;20067;-61
2022/02/08 03:30:38;;;;;;;26.48;16.80;;;;;;;2.29;89.46;98447.63;5063853;28;20029;-61
2022/02/08 03:33:04;;;;;;;27.23;19.02;;;;;;;2.22;88.95;98440.03;5060452;28;20028;-59
2022/02/08 03:35:29;;;;;;;24.98;16.35;;;;;;;2.21;89.01;98440.88;5052639;28;20221;-60
2022/02/08 03:38:01;;;;;;;26.65;17.38;;;;;;;2.31;88.81;98453.56;5064907;28;20253;-60
2022/02/08 03:45:40;;;;;;;23.17;14.73;;;;;;;2.33;88.30;98449.28;5065048;28;20043;-61
2022/02/08 03:48:06;;;;;;;24.58;15.52;;;;;;;2.36;88.28;98451.81;5065069;28;20036;-61
2022/02/08 03:50:32;;;;;;;25.65;15.25;;;;;;;2.23;88.44;98444.25;5064826;28;20032;-61
2022/02/08 03:52:57;;;;;;;22.88;15.38;;;;;;;2.23;88.79;98444.25;5064782;28;20025;-61
2022/02/08 03:55:23;;;;;;;25.85;16.58;;;;;;;2.31;88.31;98444.22;5064849;28;20254;-62
2022/02/08 03:57:48;;;;;;;23.17;16.25;;;;;;;2.34;88.59;98445.88;5064646;28;20317;-60
2022/02/08 04:00:16;;;;;;;25.38;16.80;;;;;;;2.34;88.53;98445.88;5064511;28;20451;-60
2022/02/08 04:02:46;;;;;;;31.75;18.70;;;;;;;2.29;88.15;98445.06;5064799;28;20314;-58
2022/02/08 04:05:23;;;;;;;29.33;17.55;;;;;;;2.11;88.93;98448.59;5064746;28;20040;-59
2022/02/08 04:07:54;;;;;;;27.25;17.70;;;;;;;2.12;89.44;98442.66;5064471;28;20032;-59
2022/02/08 04:10:22;;;;;;;29.33;17.50;;;;;;;1.99;89.73;98441.88;5064140;28;20088;-59
2022/02/08 04:41:41;;;;;;;28.33;17.45;;;;;;;2.14;88.76;98469.88;5063350;28;20033;-60
2022/02/08 04:44:21;;;;;;;29.20;16.55;;;;;;;2.16;88.89;98478.34;5060649;28;20021;-60
2022/02/08 04:49:15;;;;;;;30.98;17.75;;;;;;;2.05;89.01;98470.78;5061806;28;20052;-60
2022/02/08 04:51:46;;;;;;;29.95;19.30;;;;;;;2.15;88.83;98484.34;5063456;28;20028;-60
2022/02/08 04:54:44;;;;;;;27.63;17.40;;;;;;;2.15;88.89;98489.47;5062849;28;20103;-60
2022/02/08 05:27:43;;;;;;;26.25;17.05;;;;;;;2.02;88.58;98518.47;5062071;28;20036;-59
2022/02/08 05:41:07;;;;;;;22.23;15.07;;;;;;;2.28;86.77;98527.66;5062897;28;20036;-60
2022/02/08 05:43:38;;;;;;;27.08;15.55;;;;;;;2.26;87.08;98529.38;5062630;28;20341;-59
2022/02/08 05:48:44;;;;;;;23.73;15.10;;;;;;;2.31;87.51;98558.28;5062833;28;20025;-60
2022/02/08 05:51:22;;;;;;;21.67;14.75;;;;;;;2.32;86.61;98547.22;5040586;28;20120;-60
2022/02/08 05:53:48;;;;;;;25.17;13.95;;;;;;;2.23;86.02;98540.47;5061531;28;20036;-60
2022/02/08 05:56:16;;;;;;;20.00;12.48;;;;;;;2.23;86.07;98527.69;5062558;28;20021;-60
2022/02/08 05:58:45;;;;;;;18.65;12.63;;;;;;;2.35;85.57;98559.97;5062405;28;20013;-60
2022/02/08 06:01:12;;;;;;;17.60;10.93;;;;;;;2.30;84.55;98551.50;5062668;28;20102;-59
2022/02/08 06:03:37;;;;;;;15.10;9.88;;;;;;;2.32;84.10;98554.88;5062242;28;20041;-59
2022/02/08 06:06:03;;;;;;;17.08;10.00;;;;;;;2.40;84.51;98555.69;5062558;28;20040;-59
2022/02/08 06:08:29;;;;;;;15.48;9.90;;;;;;;2.43;83.53;98558.22;5062520;28;20318;-60
2022/02/08 06:10:57;;;;;;;23.95;9.95;;;;;;;2.37;82.90;98553.16;5062531;28;20201;-60
2022/02/08 06:13:23;;;;;;;15.27;9.50;;;;;;;2.48;81.82;98555.63;5062269;28;20024;-59
2022/02/08 06:15:50;;;;;;;14.90;9.10;;;;;;;2.40;81.81;98550.56;5062681;28;20261;-60
2022/02/08 06:18:16;;;;;;;10.85;7.07;;;;;;;2.40;79.06;98553.97;5061813;28;20053;-59
2022/02/08 06:20:42;;;;;;;9.05;6.05;;;;;;;2.32;76.87;98565.09;5060318;28;20029;-59
2022/02/08 06:23:08;;;;;;;7.32;5.60;;;;;;;2.33;75.94;98565.09;5061540;28;20055;-60
2022/02/08 06:25:34;;;;;;;6.82;5.32;;;;;;;2.32;77.30;98573.59;5059326;28;20033;-59
2022/02/08 06:27:59;;;;;;;9.80;6.07;;;;;;;2.42;77.56;98566.72;5059643;28;20104;-60
2022/02/08 06:30:25;;;;;;;10.15;6.68;;;;;;;2.47;78.80;98569.28;5062105;28;20255;-60
2022/02/08 06:32:53;;;;;;;11.50;7.93;;;;;;;2.38;79.20;98571.03;5059989;28;20060;-60
2022/02/08 06:35:28;;;;;;;11.18;7.78;;;;;;;2.42;79.62;98576.94;5062521;28;20103;-60
2022/02/08 06:37:54;;;;;;;10.10;7.35;;;;;;;2.30;77.35;98583.00;5062195;28;20037;-60
2022/02/08 06:40:20;;;;;;;10.43;6.78;;;;;;;2.35;76.49;98580.41;5061985;28;20056;-59
2022/02/08 06:42:46;;;;;;;11.23;6.82;;;;;;;2.42;78.01;98589.72;5062343;28;20032;-60
2022/02/08 06:45:15;;;;;;;7.75;4.93;;;;;;;2.30;76.26;98590.66;5062392;28;20218;-60
2022/02/08 06:47:49;;;;;;;7.47;4.60;;;;;;;2.32;75.41;98596.59;5062225;28;20217;-59
2022/02/08 06:50:15;;;;;;;4.75;3.85;;;;;;;2.21;71.65;98599.22;5062167;28;20237;-59
2022/02/08 06:52:40;;;;;;;5.50;4.63;;;;;;;2.36;74.29;98594.88;5062009;28;20020;-61
2022/02/08 06:55:07;;;;;;;6.78;4.22;;;;;;;2.45;74.40;98601.63;5062120;28;20033;-59
2022/02/08 06:57:47;;;;;;;6.72;4.47;;;;;;;2.34;72.31;98604.28;5061688;28;20217;-60
2022/02/08 07:00:17;;;;;;;9.00;5.38;;;;;;;2.33;73.92;98602.56;5060742;28;20053;-60
2022/02/08 07:02:42;;;;;;;9.15;5.70;;;;;;;2.34;74.89;98592.34;5062205;28;20039;-59
2022/02/08 07:05:08;;;;;;;9.38;5.93;;;;;;;2.47;75.90;98595.66;5061776;28;20021;-59
2022/02/08 07:07:33;;;;;;;9.23;5.50;;;;;;;2.37;74.70;98597.44;5062357;28;20039;-60
2022/02/08 07:09:59;;;;;;;9.55;6.38;;;;;;;2.34;74.90;98605.13;5063825;28;20051;-59
2022/02/08 07:12:25;;;;;;;9.43;6.00;;;;;;;2.34;74.58;98609.38;5065590;28;20047;-61
2022/02/08 07:14:50;;;;;;;10.40;6.32;;;;;;;2.28;75.28;98602.59;5064548;28;20339;-59
2022/02/08 07:17:16;;;;;;;10.63;6.10;;;;;;;2.42;76.12;98599.94;5065417;28;20031;-60
2022/02/08 07:19:41;;;;;;;8.30;5.47;;;;;;;2.37;75.54;98602.53;5065519;28;20257;-61
2022/02/08 07:22:07;;;;;;;8.48;6.00;;;;;;;2.38;74.33;98611.03;5065519;28;20021;-61
2022/02/08 07:24:32;;;;;;;9.48;6.00;;;;;;;2.41;74.75;98605.94;5063231;28;20104;-59
2022/02/08 07:26:58;;;;;;;10.80;5.45;;;;;;;2.39;74.48;98605.06;5064370;28;20205;-60
2022/02/08 07:29:27;;;;;;;8.93;5.57;;;;;;;2.48;75.43;98605.03;5051622;28;20214;-61
2022/02/08 07:31:57;;;;;;;7.65;5.43;;;;;;;2.48;74.60;98607.59;5051526;28;20317;-61
2022/02/08 07:39:40;;;;;;;8.20;5.80;;;;;;;2.42;74.60;98617.84;5063673;28;20306;-59
2022/02/08 07:42:07;;;;;;;8.00;5.25;;;;;;;2.49;75.75;98627.16;5064744;28;20032;-60
2022/02/08 07:44:33;;;;;;;11.25;5.72;;;;;;;2.58;75.05;98624.56;5064795;28;20047;-60
2022/02/08 07:46:58;;;;;;;10.18;6.85;;;;;;;2.46;74.53;98611.84;5063142;28;20123;-60
2022/02/08 07:49:24;;;;;;;8.60;6.20;;;;;;;2.48;74.75;98607.59;5059971;28;20067;-61
2022/02/08 07:51:50;;;;;;;8.52;5.85;;;;;;;2.64;76.28;98626.22;5063984;28;20221;-60
2022/02/08 07:54:16;;;;;;;9.35;6.05;;;;;;;2.50;74.88;98615.25;5064595;28;20106;-60
2022/02/08 07:56:41;;;;;;;11.77;6.10;;;;;;;2.53;74.97;98612.66;5064787;28;20309;-62
2022/02/08 07:59:07;;;;;;;8.90;5.97;;;;;;;2.48;75.31;98605.03;5063014;28;20025;-59
2022/02/08 08:01:33;;;;;;;10.73;6.43;;;;;;;2.62;75.39;98614.31;5052164;28;20045;-60
2022/02/08 08:03:58;;;;;;;13.05;6.82;;;;;;;2.57;75.09;98611.78;5061297;28;20021;-59
2022/02/08 08:06:24;;;;;;;10.98;6.00;;;;;;;2.50;74.61;98608.41;5064141;28;20028;-59
2022/02/08 08:08:51;;;;;;;9.30;5.85;;;;;;;2.58;75.19;98609.22;5063905;28;20096;-60
2022/02/08 08:11:21;;;;;;;9.85;5.32;;;;;;;2.59;75.85;98610.94;5061830;28;20080;-59
2022/02/08 08:13:53;;;;;;;12.75;6.85;;;;;;;2.64;76.30;98616.00;5062858;28;20274;-60
2022/02/08 08:19:24;;;;;;;10.45;5.70;;;;;;;2.64;75.49;98612.59;5062210;28;20213;-59
2022/02/08 08:21:50;;;;;;;8.20;5.68;;;;;;;2.83;75.90;98619.25;5063226;28;20314;-59
2022/02/08 08:24:16;;;;;;;8.32;5.75;;;;;;;2.70;74.66;98623.63;5058652;28;20043;-59
2022/02/08 08:26:42;;;;;;;8.43;5.50;;;;;;;2.73;75.33;98622.75;5063658;28;20037;-60
2022/02/08 08:29:08;;;;;;;8.13;5.80;;;;;;;2.71;75.14;98619.38;5063789;28;20339;-59
2022/02/08 08:31:34;;;;;;;9.15;5.50;;;;;;;2.65;75.04;98619.41;5062222;28;20032;-60
2022/02/08 08:34:00;;;;;;;7.45;4.97;;;;;;;2.61;75.02;98623.69;5060896;28;20174;-60
2022/02/08 08:36:28;;;;;;;8.20;4.65;;;;;;;2.49;74.24;98623.75;5063030;28;20053;-58
2022/02/08 08:38:54;;;;;;;8.93;4.95;;;;;;;2.40;74.98;98620.41;5062890;28;21151;-59
2022/02/08 08:41:28;;;;;;;7.00;4.97;;;;;;;2.64;75.25;98617.72;5060976;28;20336;-59
2022/02/08 08:49:29;;;;;;;8.55;5.10;;;;;;;2.67;74.57;98620.25;5063861;28;20025;-60
2022/02/08 08:51:57;;;;;;;13.13;5.63;;;;;;;2.37;74.56;98558.28;5063645;28;20028;-60
2022/02/08 08:54:23;;;;;;;7.55;5.50;;;;;;;2.80;74.51;98614.19;5063799;28;20025;-61
2022/02/08 08:56:50;;;;;;;10.18;6.05;;;;;;;2.80;74.51;98618.44;5063765;28;20114;-61
2022/02/08 08:59:16;;;;;;;9.20;5.72;;;;;;;2.72;74.39;98619.34;5063672;28;20036;-60
2022/02/08 09:01:43;;;;;;;10.35;6.22;;;;;;;2.56;73.56;98607.53;5063310;28;20045;-60
2022/02/08 09:04:09;;;;;;;11.32;6.55;;;;;;;2.58;73.81;98610.94;5070572;28;20016;-61
2022/02/08 09:06:53;;;;;;;12.10;5.53;;;;;;;2.35;74.46;98611.94;5062792;28;20456;-59
2022/02/08 09:09:23;;;;;;;9.90;6.10;;;;;;;2.54;74.97;98612.66;5062574;28;20028;-61
2022/02/08 09:14:53;;;;;;;9.30;5.10;;;;;;;2.65;74.91;98599.81;5063384;28;20028;-60
2022/02/08 09:29:51;;;;;;;7.30;4.57;;;;;;;2.79;73.58;98596.28;5062756;28;20147;-58
2022/02/08 09:33:02;;;;;;;5.32;4.00;;;;;;;2.93;74.30;98585.09;5063214;28;20029;-58
2022/02/08 09:35:03;;;;;;;8.77;4.28;;;;;;;2.85;72.25;98586.88;5057007;28;20047;-58
2022/02/08 09:37:29;;;;;;;5.00;3.67;;;;;;;3.00;73.75;98590.16;5063224;28;20020;-59
2022/02/08 09:39:54;;;;;;;8.15;4.30;;;;;;;3.08;74.32;98594.34;5062699;28;20349;-58
2022/02/08 09:42:20;;;;;;;5.85;3.95;;;;;;;3.13;72.84;98596.84;5061814;28;20041;-58
2022/02/08 09:44:46;;;;;;;6.03;4.10;;;;;;;3.05;73.24;98596.06;5061935;28;20032;-59
2022/02/08 09:47:16;;;;;;;5.55;3.92;;;;;;;3.11;73.02;98599.44;5052644;28;20340;-58
2022/02/08 09:49:51;;;;;;;7.53;3.58;;;;;;;3.07;71.76;98602.03;5062222;28;20048;-58
2022/02/08 09:52:19;;;;;;;4.32;3.47;;;;;;;3.08;71.74;98603.75;5058965;28;20052;-59
2022/02/08 09:54:45;;;;;;;5.97;3.45;;;;;;;3.18;71.24;98592.56;5062567;28;20029;-59
2022/02/08 09:57:13;;;;;;;6.50;4.05;;;;;;;3.21;72.65;98596.81;5054132;28;20048;-59
2022/02/08 09:59:38;;;;;;;6.78;4.00;;;;;;;2.98;72.26;98590.19;5056665;28;20029;-59
2022/02/08 10:02:04;;;;;;;6.20;3.90;;;;;;;2.98;71.86;98591.88;5062528;28;20025;-59
2022/02/08 10:04:30;;;;;;;7.70;4.13;;;;;;;2.94;72.51;98581.66;5062372;28;20043;-58
2022/02/08 10:06:55;;;;;;;5.40;3.78;;;;;;;3.08;72.40;98588.38;5062688;28;20025;-58
2022/02/08 10:09:32;;;;;;;8.85;4.82;;;;;;;2.67;72.32;98523.97;5062361;28;20058;-59
2022/02/08 10:11:58;;;;;;;6.97;4.05;;;;;;;3.04;72.08;98579.03;5061502;28;20368;-60
2022/02/08 10:14:51;;;;;;;10.25;4.45;;;;;;;3.00;72.17;98591.00;5061640;28;20017;-58
2022/02/08 10:22:28;;;;;;;8.48;4.75;;;;;;;2.62;71.36;98518.03;5061056;28;20033;-58
2022/02/08 10:24:58;;;;;;;;;;;;;;;3.10;71.73;98589.22;5062704;28;20029;-58
2022/02/08 10:27:31;;;;;;;8.10;4.75;;;;;;;3.17;72.95;98588.28;5062012;28;20097;-59
2022/02/08 10:38:18;;;;;;;9.13;5.13;;;;;;;3.13;72.62;98578.09;5061776;28;20029;-58
2022/02/08 10:40:44;;;;;;;10.52;4.97;;;;;;;3.19;72.21;98567.81;5061741;28;20027;-57
2022/02/08 10:43:18;;;;;;;8.20;4.70;;;;;;;2.72;72.29;98518.78;5062596;28;20021;-59
2022/02/08 10:45:44;;;;;;;10.10;5.70;;;;;;;3.21;72.88;98578.91;5065630;28;20033;-58
2022/02/08 10:48:23;;;;;;;4.65;3.63;;;;;;;3.19;71.36;98580.59;5066034;28;20032;-58
2022/02/08 10:50:57;;;;;;;7.00;4.32;;;;;;;3.22;72.12;98586.56;5065746;28;20021;-58
2022/02/08 10:53:26;;;;;;;6.07;4.30;;;;;;;3.30;73.15;98583.06;5065630;28;20028;-59
2022/02/08 10:56:06;;;;;;;5.57;3.92;;;;;;;3.15;72.35;98581.50;5063376;28;20020;-59
2022/02/08 10:58:37;;;;;;;7.72;4.10;;;;;;;3.27;72.15;98579.66;5065399;28;20048;-58
2022/02/08 11:03:36;;;;;;;7.30;4.10;;;;;;;3.19;71.54;98561.00;5065096;28;20051;-59
2022/02/08 11:16:34;;;;;;;7.60;4.28;;;;;;;3.26;73.04;98579.69;5065397;28;20048;-58
2022/02/08 11:19:09;;;;;;;5.90;4.00;;;;;;;3.18;72.42;98578.91;5065313;28;20044;-58
2022/02/08 11:22:11;;;;;;;6.72;5.10;;;;;;;3.18;72.84;98586.56;5065200;28;20052;-59
2022/02/08 11:24:47;;;;;;;11.82;4.45;;;;;;;3.09;73.61;98584.94;5064224;28;20036;-58
2022/02/08 11:27:18;;;;;;;6.85;4.20;;;;;;;2.71;72.77;98520.53;5064831;28;20071;-58
2022/02/08 11:30:03;;;;;;;8.02;4.72;;;;;;;3.11;73.20;98583.25;5064579;28;20344;-58
2022/02/08 11:32:52;;;;;;;8.18;5.50;;;;;;;3.09;74.28;98580.69;5065175;28;20037;-58
2022/02/08 11:49:32;;;;;;;7.53;4.40;;;;;;;3.00;74.08;98556.91;5065259;28;20032;-59
2022/02/08 11:52:29;;;;;;;7.80;4.47;;;;;;;2.87;73.44;98523.78;5047451;28;20094;-58
2022/02/08 11:55:23;;;;;;;6.45;4.28;;;;;;;3.21;73.45;98587.41;5064455;28;20309;-58
2022/02/08 12:00:33;;;;;;;6.78;3.95;;;;;;;3.18;72.55;98587.44;5063101;28;20052;-58
2022/02/08 12:06:09;;;;;;;8.80;3.83;;;;;;;3.12;73.29;98590.03;5064519;28;20324;-58
2022/02/08 12:08:40;;;;;;;5.90;4.00;;;;;;;2.69;72.60;98529.06;5064670;28;20275;-58
2022/02/08 12:11:34;;;;;;;4.35;3.50;;;;;;;3.00;71.97;98580.78;5064659;28;20313;-57
2022/02/08 12:33:44;;;;;;;6.97;3.67;;;;;;;2.88;74.25;98602.19;5057402;28;20326;-58
2022/02/08 12:36:45;;;;;;;5.20;3.67;;;;;;;2.65;74.33;98547.81;5056874;28;20035;-59
2022/02/08 13:03:22;;;;;;;5.60;3.60;;;;;;;2.89;75.17;98619.25;5062192;28;20036;-58
2022/02/08 13:15:14;;;;;;;7.03;3.42;;;;;;;2.77;74.68;98626.97;5063096;28;20032;-58
2022/02/08 13:18:45;;;;;;;3.65;3.20;;;;;;;2.84;74.53;98632.91;5061798;28;20041;-57
2022/02/08 14:01:43;;;;;;;5.22;3.00;;;;;;;2.81;75.15;98632.91;5061264;28;20082;-59
2022/02/08 14:23:38;;;;;;;3.92;3.05;;;;;;;2.65;75.48;98624.50;5054064;28;20041;-59
2022/02/08 14:25:45;;;;;;;4.95;3.03;;;;;;;2.67;75.87;98627.91;5044934;28;20045;-58
2022/02/08 14:31:06;;;;;;;6.80;3.35;;;;;;;2.61;75.60;98639.03;5060937;28;20257;-58
2022/02/08 14:36:42;;;;;;;4.60;3.08;;;;;;;2.61;76.97;98633.03;5066004;28;20318;-58
2022/02/08 15:07:50;;;;;;;4.97;2.88;;;;;;;2.44;76.04;98635.69;5064327;28;20071;-58
2022/02/08 15:09:25;;;;;;;3.95;2.80;;;;;;;2.43;75.96;98634.88;5067553;28;20060;-58
2022/02/08 15:14:44;;;;;;;4.38;3.45;;;;;;;2.45;76.44;98647.63;5065702;28;20108;-58
2022/02/08 15:17:10;;;;;;;5.20;3.10;;;;;;;2.41;77.40;98651.94;5065602;28;20031;-58
2022/02/08 15:19:37;;;;;;;3.88;2.83;;;;;;;2.41;77.60;98646.81;5065586;28;20314;-58
2022/02/08 15:22:05;;;;;;;4.50;3.10;;;;;;;2.27;78.18;98648.56;5064272;28;20241;-59
2022/02/08 15:24:31;;;;;;;6.10;3.03;;;;;;;2.31;78.24;98648.56;5065543;28;20025;-59
2022/02/08 15:26:56;;;;;;;4.97;3.30;;;;;;;2.35;78.34;98654.50;5065038;28;20209;-58
2022/02/08 15:29:24;;;;;;;3.40;2.78;;;;;;;2.29;77.91;98649.41;5064486;28;20031;-58
2022/02/08 15:31:50;;;;;;;5.00;3.15;;;;;;;2.19;79.04;98657.09;5065308;28;20036;-58
2022/02/08 15:34:16;;;;;;;3.78;2.90;;;;;;;2.23;79.40;98657.97;5062524;28;20037;-58
2022/02/08 15:36:41;;;;;;;5.78;2.90;;;;;;;2.05;80.00;98656.31;5065061;28;20017;-57
2022/02/08 15:39:09;;;;;;;4.43;2.72;;;;;;;1.92;80.22;98658.06;5075955;28;20324;-57
2022/02/08 15:41:38;;;;;;;4.05;3.05;;;;;;;2.07;81.55;98652.06;5064917;28;20028;-58
2022/02/08 15:44:09;;;;;;;4.95;2.90;;;;;;;1.98;80.90;98652.09;5064829;28;20017;-58
2022/02/08 15:46:35;;;;;;;4.10;2.88;;;;;;;2.02;81.04;98653.78;5064052;28;20032;-58
2022/02/08 15:49:01;;;;;;;6.32;3.13;;;;;;;1.98;81.36;98650.41;5063315;28;20336;-57
2022/02/08 16:10:10;;;;;;;3.90;2.85;;;;;;;1.83;81.66;98664.06;5064492;28;20033;-58
2022/02/08 16:12:45;;;;;;;3.00;2.70;;;;;;;1.81;82.58;98665.78;5064462;28;20040;-55
2022/02/08 16:18:08;;;;;;;3.65;2.70;;;;;;;1.83;82.26;98666.59;5064472;28;20071;-57
2022/02/08 16:21:02;;;;;;;5.15;2.80;;;;;;;1.77;82.38;98678.53;5064437;28;20054;-56
2022/02/08 16:26:02;;;;;;;4.45;3.10;;;;;;;1.69;82.66;98679.41;5064113;28;20048;-56
2022/02/08 16:28:53;;;;;;;4.50;2.80;;;;;;;1.71;83.22;98669.19;5064162;28;20372;-57
2022/02/08 16:58:07;;;;;;;3.72;2.70;;;;;;;1.67;81.42;98657.31;5047879;28;20080;-57
2022/02/08 17:00:33;;;;;;;4.95;2.53;;;;;;;1.66;80.95;98651.34;5049490;28;20040;-58
2022/02/08 17:03:04;;;;;;;4.38;2.42;;;;;;;1.75;80.40;98665.78;5057564;28;20032;-58
2022/02/08 17:05:30;;;;;;;3.47;2.10;;;;;;;1.68;80.23;98651.34;5062953;28;20360;-56
2022/02/08 17:07:56;;;;;;;4.60;2.17;;;;;;;1.78;80.35;98665.78;5062948;28;20032;-56
2022/02/08 17:13:06;;;;;;;4.10;2.33;;;;;;;1.65;80.08;98661.56;5063066;28;20321;-58
2022/02/08 17:47:58;;;;;;;4.13;1.90;;;;;;;1.85;79.63;98652.16;5062287;28;20025;-57
2022/02/08 17:50:23;;;;;;;1.52;1.40;;;;;;;1.79;79.33;98647.06;5061083;28;20033;-58
2022/02/08 17:52:50;;;;;;;3.08;1.98;;;;;;;1.72;78.92;98633.47;5062038;28;20029;-58
2022/02/08 17:55:17;;;;;;;3.95;1.80;;;;;;;1.81;79.44;98640.25;5062418;28;20229;-59
2022/02/08 17:57:43;;;;;;;2.55;1.77;;;;;;;1.78;80.06;98635.16;5060324;28;20313;-58
2022/02/08 18:00:13;;;;;;;2.72;1.80;;;;;;;1.51;81.12;98601.22;5051190;28;20052;-58
2022/02/08 18:02:43;;;;;;;5.50;2.25;;;;;;;1.77;82.33;98645.34;5053213;28;20132;-58
2022/02/08 18:05:09;;;;;;;2.63;2.30;;;;;;;1.80;82.96;98636.00;5062150;28;20083;-59
2022/02/08 18:07:36;;;;;;;4.57;3.25;;;;;;;1.85;83.73;98631.72;5062309;28;20206;-59
2022/02/08 18:10:03;;;;;;;4.20;3.25;;;;;;;1.48;84.12;98582.50;5061860;28;20221;-59
2022/02/08 18:12:29;;;;;;;4.85;4.03;;;;;;;1.73;83.81;98644.53;5060753;28;20037;-59
2022/02/08 18:15:02;;;;;;;4.65;3.47;;;;;;;1.61;83.53;98639.44;5062219;28;20040;-61
2022/02/08 18:17:37;;;;;;;4.13;3.72;;;;;;;1.68;83.96;98638.56;5061950;28;20067;-60
2022/02/08 18:58:05;;;;;;;4.05;2.30;;;;;;;1.41;80.02;98629.28;5061943;28;20025;-60
2022/02/08 19:09:23;;;;;;;1.25;1.15;;;;;;;1.13;77.84;98640.38;5062448;28;20048;-60
2022/02/08 19:17:39;;;;;;;1.45;1.20;;;;;;;1.20;76.67;98639.50;5047952;28;20041;-60
2022/02/08 19:20:12;;;;;;;2.38;1.10;;;;;;;1.31;76.47;98649.72;5065455;28;20049;-61
2022/02/08 19:22:37;;;;;;;2.72;1.30;;;;;;;1.29;76.84;98650.56;5065121;28;20029;-61
2022/02/08 19:25:03;;;;;;;1.77;1.05;;;;;;;1.31;76.93;98643.75;5065319;28;20028;-59
2022/02/08 19:27:29;;;;;;;3.88;1.40;;;;;;;1.30;75.92;98630.16;5064151;28;20065;-60
2022/02/08 19:29:55;;;;;;;1.38;1.17;;;;;;;1.34;75.36;98644.59;5065419;28;20040;-61
2022/02/08 19:32:20;;;;;;;1.17;1.08;;;;;;;1.42;75.57;98651.41;5065334;28;20082;-59